Terminal Aerodrome Forecast
Issued by NWS Topeka, KS

Home | Current Version | Previous Version | Text Only | Print | Product List | Glossary Off
Versions: 1 2 3 4 5 6 7 8 9 10 11 12 13 14 15 16 17 18 19

000
FTUS43 KTOP 241700
TAFTOP
TAF
KTOP 241736Z 2418/2518 27010KT P6SM SCT150
     FM242000 24012G21KT P6SM BKN120
     FM250100 28011KT P6SM BKN060
     FM251300 29014G22KT P6SM SCT250=

USA.gov is the U.S. government's official web portal to all federal, state and local government web resources and services.